CYMO

Moosonee Airport

Moosonee, Ontario, Canada
METAR CYMO 101502Z AUTO 16010KT 6SM -SN OVC019 M11/M14 A3022 RMK SLP234
Observed Flight Rules
Dec-10 @ 15:02 UTC (16 minutes ago) Marginal Visual Flight Rules
Wind Visibility Clouds Conditions
160° at 10 knots 6 miles
  • Overcast at 1,900' AGL
  • Light Snow
Temperatures Readings
Current -11°C / 12°F
Dewpoint -14°C / 7°F
Humidity 79%
Altimeter 30.22" Hg
Pressure 1023.4 hPa
Elevation 10
METAR CYMO 101502Z AUTO 16010KT 6SM -SN OVC019 M11/M14 A3022 RMK SLP234
Observed Flight Rules
Dec-10 @ 15:02 UTC
(16 minutes ago)
MVFR
Wind Visibility
160° at 10 knots 6 miles
Clouds
  • Overcast at 1,900' AGL
Conditions
  • Light Snow
Temperature Dewpoint
-11°C / 12°F -14°C / 7°F
Humidity Altimeter Pressure
79% 30.22" Hg 1023.4 hPa